createdAt,value
2022-12-05T00:01:17.285Z,15.40
2022-12-05T00:03:44.006Z,14.45
2022-12-05T00:06:10.842Z,15.93
2022-12-05T00:08:37.293Z,16.25
2022-12-05T00:11:04.069Z,15.20
2022-12-05T00:13:30.560Z,14.95
2022-12-05T00:15:57.007Z,15.45
2022-12-05T00:18:23.785Z,16.13
2022-12-05T00:20:50.519Z,15.52
2022-12-05T00:23:17.430Z,14.82
2022-12-05T00:25:44.006Z,15.05
2022-12-05T00:28:10.527Z,15.73
2022-12-05T00:30:40.821Z,14.27
2022-12-05T00:33:07.443Z,14.48
2022-12-05T00:35:34.544Z,13.15
2022-12-05T00:38:00.990Z,14.93
2022-12-05T00:40:27.431Z,14.43
2022-12-05T00:42:54.032Z,14.50
2022-12-05T00:45:20.604Z,14.93
2022-12-05T00:47:47.393Z,14.57
2022-12-05T00:50:13.879Z,15.23
2022-12-05T00:52:40.424Z,13.43
2022-12-05T00:55:07.090Z,14.93
2022-12-05T00:57:33.467Z,14.00
2022-12-05T00:59:59.987Z,15.77
2022-12-05T01:02:26.698Z,13.65
2022-12-05T01:04:53.110Z,15.25
2022-12-05T01:07:19.509Z,14.00
2022-12-05T01:09:45.980Z,14.43
2022-12-05T01:12:12.422Z,14.88
2022-12-05T01:14:38.864Z,13.57
2022-12-05T01:17:05.409Z,13.25
2022-12-05T01:19:32.907Z,14.18
2022-12-05T01:22:00.436Z,12.77
2022-12-05T01:24:28.374Z,13.73
2022-12-05T01:26:54.927Z,12.93
2022-12-05T01:29:23.231Z,13.10
2022-12-05T01:31:49.951Z,12.35
2022-12-05T01:34:17.957Z,12.77
2022-12-05T01:36:45.162Z,11.35
2022-12-05T01:39:12.557Z,12.27
2022-12-05T01:41:46.010Z,10.77
2022-12-05T01:44:12.619Z,10.48
2022-12-05T01:46:44.520Z,11.07
2022-12-05T01:49:15.354Z,12.15
2022-12-05T01:51:46.007Z,11.43
2022-12-05T01:54:14.944Z,10.50
2022-12-05T01:56:44.473Z,9.60
2022-12-05T01:59:12.299Z,10.23
2022-12-05T02:01:39.483Z,10.55
2022-12-05T02:04:06.731Z,9.75
2022-12-05T02:06:34.064Z,10.18
2022-12-05T02:09:00.671Z,9.68
2022-12-05T02:11:30.423Z,9.80
2022-12-05T02:14:32.183Z,10.60
2022-12-05T02:17:21.515Z,9.90
2022-12-05T02:20:14.532Z,10.25
2022-12-05T02:22:59.831Z,10.88
2022-12-05T02:25:45.024Z,10.13
2022-12-05T02:28:36.484Z,9.90
2022-12-05T02:31:11.325Z,10.15
2022-12-05T02:34:13.160Z,10.88
2022-12-05T02:36:48.780Z,11.73
2022-12-05T02:39:29.437Z,10.25
2022-12-05T02:42:02.953Z,11.60
2022-12-05T02:44:39.543Z,10.30
2022-12-05T02:47:09.004Z,12.20
2022-12-05T02:49:36.915Z,12.45
2022-12-05T02:52:07.884Z,9.88
2022-12-05T02:54:40.001Z,11.75
2022-12-05T02:57:09.945Z,10.73
2022-12-05T02:59:37.577Z,12.10
2022-12-05T03:02:04.230Z,10.27
2022-12-05T03:04:31.553Z,11.93
2022-12-05T03:07:05.047Z,10.05
2022-12-05T03:09:51.245Z,12.95
2022-12-05T03:12:30.976Z,10.18
2022-12-05T03:15:10.318Z,10.35
2022-12-05T03:17:44.604Z,11.73
2022-12-05T03:20:28.464Z,10.88
2022-12-05T03:25:35.012Z,9.77
2022-12-05T03:28:16.981Z,11.05
2022-12-05T03:30:43.819Z,10.45
2022-12-05T03:33:32.858Z,10.93
2022-12-05T03:36:13.791Z,10.95
2022-12-05T03:38:47.801Z,11.68
2022-12-05T03:41:31.025Z,10.90
2022-12-05T03:44:05.281Z,10.55
2022-12-05T03:46:40.983Z,11.38
2022-12-05T03:49:13.486Z,10.25
2022-12-05T03:51:49.868Z,10.23
2022-12-05T03:54:24.321Z,9.60
2022-12-05T03:56:58.195Z,9.52
2022-12-05T03:59:37.021Z,10.25
2022-12-05T04:02:11.044Z,10.38
2022-12-05T04:04:59.823Z,10.15
2022-12-05T04:07:32.025Z,10.32
2022-12-05T04:10:05.519Z,9.90
2022-12-05T04:12:35.688Z,9.30
2022-12-05T04:15:06.976Z,9.32
2022-12-05T04:17:53.239Z,8.80
2022-12-05T04:20:53.300Z,10.57
2022-12-05T04:23:20.739Z,9.60
2022-12-05T04:26:05.559Z,10.20
2022-12-05T04:29:22.030Z,10.30
2022-12-05T04:31:55.509Z,8.77
2022-12-05T04:34:24.899Z,9.88
2022-12-05T04:37:11.161Z,8.93
2022-12-05T04:39:44.700Z,10.00
2022-12-05T04:42:16.541Z,10.50
2022-12-05T04:45:05.580Z,9.90
2022-12-05T04:47:37.666Z,9.73
2022-12-05T04:50:07.427Z,11.00
2022-12-05T04:52:36.307Z,9.27
2022-12-05T04:55:10.208Z,9.75
2022-12-05T04:57:55.720Z,9.70
2022-12-05T05:00:22.454Z,10.02
2022-12-05T05:02:59.302Z,9.05
2022-12-05T05:05:28.064Z,9.95
2022-12-05T05:07:55.640Z,9.70
2022-12-05T05:11:05.315Z,10.95
2022-12-05T05:13:31.703Z,9.77
2022-12-05T05:15:58.137Z,10.13
2022-12-05T05:18:24.603Z,10.23
2022-12-05T05:20:51.034Z,10.02
2022-12-05T05:23:17.418Z,10.23
2022-12-05T05:25:43.879Z,9.40
2022-12-05T05:28:10.298Z,10.23
2022-12-05T05:30:36.771Z,9.80
2022-12-05T05:33:03.763Z,9.88
2022-12-05T05:35:30.154Z,10.88
2022-12-05T05:37:57.505Z,9.80
2022-12-05T05:40:23.896Z,10.45
2022-12-05T05:42:51.113Z,11.05
2022-12-05T05:45:17.652Z,9.88
2022-12-05T05:47:44.477Z,10.18
2022-12-05T05:50:14.995Z,10.20
2022-12-05T05:52:44.521Z,10.30
2022-12-05T05:55:11.261Z,10.20
2022-12-05T05:57:37.706Z,10.40
2022-12-05T06:00:06.283Z,11.00
2022-12-05T06:02:34.721Z,11.15
2022-12-05T06:05:01.719Z,10.32
2022-12-05T06:07:28.578Z,10.63
2022-12-05T06:09:55.356Z,11.65
2022-12-05T06:12:22.316Z,10.80
2022-12-05T06:14:49.548Z,10.07
2022-12-05T06:17:16.842Z,10.48
2022-12-05T06:19:43.264Z,11.32
2022-12-05T06:22:09.766Z,10.83
2022-12-05T06:24:36.264Z,10.25
2022-12-05T06:27:02.788Z,10.63
2022-12-05T06:29:33.473Z,10.25
2022-12-05T06:32:00.420Z,10.65
2022-12-05T06:34:26.969Z,11.13
2022-12-05T06:36:53.447Z,11.00
2022-12-05T06:39:20.078Z,10.60
2022-12-05T06:41:46.520Z,10.85
2022-12-05T06:44:12.923Z,10.35
2022-12-05T06:46:39.406Z,11.05
2022-12-05T06:49:05.823Z,10.75
2022-12-05T06:51:32.339Z,10.40
2022-12-05T06:53:58.784Z,10.55
2022-12-05T06:56:25.306Z,10.52
2022-12-05T06:58:53.515Z,10.45
2022-12-05T07:01:41.504Z,10.32
2022-12-05T07:04:15.974Z,9.75
2022-12-05T07:06:49.880Z,11.00
2022-12-05T07:09:18.403Z,10.75
2022-12-05T07:11:49.902Z,10.40
2022-12-05T07:14:38.946Z,10.73
2022-12-05T07:17:04.497Z,9.95
2022-12-05T07:19:30.959Z,10.05
2022-12-05T07:21:57.381Z,10.20
2022-12-05T07:24:24.664Z,9.82
2022-12-05T07:26:51.178Z,9.23
2022-12-05T07:29:17.729Z,10.18
2022-12-05T07:31:44.308Z,9.88
2022-12-05T07:34:10.774Z,11.68
2022-12-05T07:36:37.186Z,11.43
2022-12-05T07:39:04.045Z,14.88
2022-12-05T07:41:32.781Z,15.68
2022-12-05T07:44:00.229Z,12.65
2022-12-05T07:46:28.793Z,11.02
2022-12-05T07:48:58.142Z,11.57
2022-12-05T07:51:24.786Z,11.38
2022-12-05T07:53:52.242Z,11.82
2022-12-05T07:56:19.253Z,10.45
2022-12-05T07:58:47.963Z,11.75
2022-12-05T08:01:26.744Z,10.45
2022-12-05T08:03:55.396Z,10.88
2022-12-05T08:06:25.023Z,11.57
2022-12-05T08:08:52.043Z,12.30
2022-12-05T08:11:24.487Z,12.13
2022-12-05T08:13:51.466Z,13.93
2022-12-05T08:16:20.867Z,12.75
2022-12-05T08:18:47.476Z,13.27
2022-12-05T08:21:19.155Z,12.40
2022-12-05T08:23:46.474Z,13.98
2022-12-05T08:26:27.087Z,13.02
2022-12-05T08:29:05.317Z,13.68
2022-12-05T08:31:37.514Z,13.43
2022-12-05T08:34:04.897Z,13.15
2022-12-05T08:36:32.640Z,13.80
2022-12-05T08:39:00.984Z,12.50
2022-12-05T08:41:30.263Z,12.95
2022-12-05T08:43:58.747Z,12.48
2022-12-05T08:46:25.603Z,12.27
2022-12-05T08:48:52.198Z,11.43
2022-12-05T08:51:18.712Z,9.65
2022-12-05T08:53:45.119Z,10.52
2022-12-05T08:56:12.148Z,10.35
2022-12-05T08:58:40.087Z,10.45
2022-12-05T09:01:12.212Z,9.43
2022-12-05T09:03:43.342Z,9.25
2022-12-05T09:06:12.570Z,9.38
2022-12-05T09:08:39.814Z,9.32
2022-12-05T09:11:08.304Z,9.50
2022-12-05T09:13:36.025Z,9.77
2022-12-05T09:16:14.604Z,8.82
2022-12-05T09:18:41.587Z,10.40
2022-12-05T09:21:10.648Z,9.15
2022-12-05T09:23:37.560Z,9.40
2022-12-05T09:26:06.154Z,10.32
2022-12-05T09:28:34.033Z,8.73
2022-12-05T09:31:03.618Z,9.32
2022-12-05T09:33:31.973Z,10.27
2022-12-05T09:35:58.541Z,9.85
2022-12-05T09:38:24.979Z,11.70
2022-12-05T09:41:04.875Z,10.60
2022-12-05T09:43:52.633Z,9.90
2022-12-05T09:46:35.778Z,9.95
2022-12-05T09:49:04.927Z,11.52
2022-12-05T09:51:32.322Z,11.23
2022-12-05T09:53:58.800Z,11.43
2022-12-05T09:56:30.631Z,11.60
2022-12-05T09:59:00.846Z,12.45
2022-12-05T10:01:42.433Z,11.00
2022-12-05T10:04:18.087Z,11.20
2022-12-05T10:06:58.287Z,10.38
2022-12-05T10:09:30.650Z,11.00
2022-12-05T10:12:15.524Z,10.43
2022-12-05T10:15:13.449Z,12.23
2022-12-05T10:17:45.745Z,10.38
2022-12-05T10:20:16.908Z,11.18
2022-12-05T10:22:57.018Z,11.27
2022-12-05T10:25:27.904Z,10.82
2022-12-05T10:28:03.494Z,11.52
2022-12-05T10:30:33.937Z,9.60
2022-12-05T10:33:14.542Z,11.60
2022-12-05T10:35:43.312Z,12.15
2022-12-05T10:38:16.706Z,11.55
2022-12-05T10:40:47.166Z,14.13
2022-12-05T10:43:16.726Z,12.57
2022-12-05T10:45:45.747Z,11.35
2022-12-05T10:48:14.512Z,10.90
2022-12-05T10:50:43.467Z,11.77
2022-12-05T10:53:16.980Z,12.02
2022-12-05T10:56:06.404Z,10.48
2022-12-05T10:58:33.588Z,12.07
2022-12-05T11:01:09.561Z,11.35
2022-12-05T11:03:39.220Z,10.63
2022-12-05T11:06:25.582Z,11.18
2022-12-05T11:09:10.056Z,11.25
2022-12-05T11:11:36.678Z,11.90
2022-12-05T11:14:20.990Z,11.20
2022-12-05T11:16:54.222Z,13.10
2022-12-05T11:19:39.146Z,12.48
2022-12-05T11:22:08.116Z,10.60
2022-12-05T11:24:36.787Z,11.50
2022-12-05T11:27:25.358Z,11.38
2022-12-05T11:30:03.006Z,11.00
2022-12-05T11:32:33.072Z,10.70
2022-12-05T11:35:11.698Z,10.45
2022-12-05T11:37:54.982Z,11.00
2022-12-05T11:40:52.967Z,17.23
2022-12-05T11:43:37.511Z,11.75
2022-12-05T11:46:38.194Z,11.65
2022-12-05T11:49:26.246Z,11.32
2022-12-05T11:52:39.042Z,11.50
2022-12-05T11:55:15.842Z,11.50
2022-12-05T11:58:18.227Z,12.18
2022-12-05T12:01:35.084Z,11.98
2022-12-05T12:04:21.249Z,11.18
2022-12-05T12:07:07.163Z,11.45
2022-12-05T12:09:50.762Z,12.35
2022-12-05T12:12:52.769Z,12.23
2022-12-05T12:15:48.096Z,13.23
2022-12-05T12:18:45.464Z,11.65
2022-12-05T12:21:24.316Z,12.63
2022-12-05T12:23:56.767Z,11.43
2022-12-05T12:26:36.827Z,13.00
2022-12-05T12:29:25.249Z,11.40
2022-12-05T12:32:32.921Z,11.25
2022-12-05T12:35:27.137Z,10.80
2022-12-05T12:40:38.459Z,9.95
2022-12-05T12:43:51.695Z,10.73
2022-12-05T12:46:17.220Z,10.70
2022-12-05T12:48:58.356Z,10.27
2022-12-05T12:51:25.163Z,10.93
2022-12-05T12:54:34.186Z,10.40
2022-12-05T12:57:30.705Z,9.98
2022-12-05T13:00:03.848Z,10.80
2022-12-05T13:02:45.006Z,10.30
2022-12-05T13:05:36.128Z,10.65
2022-12-05T13:08:25.059Z,9.98
2022-12-05T13:10:52.447Z,11.23
2022-12-05T13:13:40.546Z,10.75
2022-12-05T13:16:08.466Z,11.15
2022-12-05T13:18:35.744Z,15.13
2022-12-05T13:21:07.240Z,10.40
2022-12-05T13:23:41.065Z,12.45
2022-12-05T13:26:10.807Z,11.73
2022-12-05T13:28:50.500Z,11.52
2022-12-05T13:31:19.374Z,9.95
2022-12-05T13:33:48.728Z,11.18
2022-12-05T13:36:41.409Z,13.00
2022-12-05T13:39:39.331Z,11.40
2022-12-05T13:42:18.825Z,10.10
2022-12-05T13:44:49.373Z,11.18
2022-12-05T13:47:32.613Z,10.55
2022-12-05T13:50:17.480Z,12.27
2022-12-05T13:52:55.184Z,11.00
2022-12-05T13:55:35.340Z,12.23
2022-12-05T13:58:23.897Z,11.40
2022-12-05T14:00:52.160Z,11.07
2022-12-05T14:03:24.412Z,12.65
2022-12-05T14:05:53.354Z,10.00
2022-12-05T14:08:32.285Z,11.13
2022-12-05T14:10:58.740Z,11.20
2022-12-05T14:13:25.404Z,11.68
2022-12-05T14:15:54.579Z,12.05
2022-12-05T14:18:44.597Z,12.00
2022-12-05T14:21:18.040Z,11.35
2022-12-05T14:24:02.707Z,12.00
2022-12-05T14:26:48.284Z,9.85
2022-12-05T14:29:36.902Z,11.35
2022-12-05T14:32:24.693Z,11.32
2022-12-05T14:35:13.624Z,11.55
2022-12-05T14:37:50.707Z,11.15
2022-12-05T14:40:39.666Z,10.95
2022-12-05T14:43:17.933Z,10.77
2022-12-05T14:45:53.250Z,12.18
2022-12-05T14:48:19.763Z,12.55
2022-12-05T14:50:51.932Z,13.35
2022-12-05T14:53:21.689Z,13.02
2022-12-05T14:55:54.124Z,13.88
2022-12-05T14:58:49.007Z,13.25
2022-12-05T15:01:21.179Z,11.93
2022-12-05T15:04:00.244Z,12.07
2022-12-05T15:06:27.719Z,11.32
2022-12-05T15:09:21.202Z,12.88
2022-12-05T15:11:45.997Z,11.52
2022-12-05T15:14:29.123Z,11.40
2022-12-05T15:16:59.607Z,11.07
2022-12-05T15:19:31.858Z,12.00
2022-12-05T15:22:02.912Z,12.02
2022-12-05T15:24:37.330Z,9.93
2022-12-05T15:27:05.963Z,10.00
2022-12-05T15:29:33.692Z,10.85
2022-12-05T15:32:17.051Z,11.65
2022-12-05T15:35:06.241Z,13.00
2022-12-05T15:37:44.164Z,11.57
2022-12-05T15:40:17.569Z,13.55
2022-12-05T15:42:47.116Z,11.60
2022-12-05T15:45:14.031Z,10.15
2022-12-05T15:47:41.898Z,12.30
2022-12-05T15:50:38.950Z,11.25
2022-12-05T15:53:18.915Z,11.02
2022-12-05T15:55:47.750Z,10.82
2022-12-05T15:58:36.926Z,10.48
2022-12-05T16:01:11.882Z,11.48
2022-12-05T16:04:02.388Z,11.05
2022-12-05T16:06:31.807Z,11.57
2022-12-05T16:09:00.603Z,11.73
2022-12-05T16:11:27.668Z,11.52
2022-12-05T16:14:01.929Z,12.25
2022-12-05T16:16:35.694Z,11.65
2022-12-05T16:19:15.416Z,12.13
2022-12-05T16:21:46.831Z,11.00
2022-12-05T16:24:28.844Z,11.25
2022-12-05T16:27:29.860Z,11.02
2022-12-05T16:30:20.490Z,11.82
2022-12-05T16:32:49.860Z,10.57
2022-12-05T16:35:38.556Z,11.32
2022-12-05T16:38:10.233Z,10.68
2022-12-05T16:40:38.797Z,12.77
2022-12-05T16:43:16.657Z,11.48
2022-12-05T16:45:47.191Z,10.75
2022-12-05T16:48:19.821Z,11.75
2022-12-05T16:50:46.677Z,11.30
2022-12-05T16:53:27.205Z,10.52
2022-12-05T16:55:54.125Z,10.27
2022-12-05T16:58:26.863Z,8.70
2022-12-05T17:00:59.806Z,10.17
2022-12-05T17:03:34.471Z,7.43
2022-12-05T17:06:01.590Z,10.15
2022-12-05T17:08:28.093Z,10.52
2022-12-05T17:10:54.740Z,11.00
2022-12-05T17:13:21.515Z,11.18
2022-12-05T17:15:48.084Z,10.52
2022-12-05T17:18:27.931Z,10.07
2022-12-05T17:21:00.923Z,9.15
2022-12-05T17:23:27.363Z,10.40
2022-12-05T17:25:56.302Z,12.02
2022-12-05T17:28:23.911Z,11.52
2022-12-05T17:30:50.859Z,9.85
2022-12-05T17:33:19.938Z,9.07
2022-12-05T17:35:46.868Z,9.05
2022-12-05T17:38:13.455Z,7.60
2022-12-05T17:40:41.717Z,7.88
2022-12-05T17:43:12.610Z,6.78
2022-12-05T17:45:39.306Z,6.80
2022-12-05T17:48:06.028Z,7.82
2022-12-05T17:50:32.878Z,7.53
2022-12-05T17:53:04.240Z,6.50
2022-12-05T17:55:33.664Z,6.97
2022-12-05T17:58:00.068Z,7.35
2022-12-05T18:00:26.583Z,6.85
2022-12-05T18:02:53.051Z,6.90
2022-12-05T18:05:19.795Z,8.93
2022-12-05T18:07:46.478Z,7.22
2022-12-05T18:10:16.251Z,7.70
2022-12-05T18:12:43.328Z,8.13
2022-12-05T18:15:10.236Z,7.53
2022-12-05T18:17:36.666Z,7.07
2022-12-05T18:20:03.973Z,7.60
2022-12-05T18:22:30.435Z,7.50
2022-12-05T18:24:58.679Z,8.02
2022-12-05T18:27:25.619Z,7.47
2022-12-05T18:29:52.073Z,7.78
2022-12-05T18:32:19.947Z,7.45
2022-12-05T18:34:46.452Z,8.00
2022-12-05T18:37:12.924Z,7.72
2022-12-05T18:39:39.642Z,6.85
2022-12-05T18:42:11.779Z,6.75
2022-12-05T18:44:41.370Z,6.88
2022-12-05T18:47:08.144Z,7.50
2022-12-05T18:49:34.602Z,6.50
2022-12-05T18:52:01.055Z,5.68
2022-12-05T18:54:27.945Z,7.30
2022-12-05T18:56:54.451Z,6.63
2022-12-05T18:59:22.387Z,6.53
2022-12-05T19:01:50.011Z,7.82
2022-12-05T19:04:19.616Z,8.48
2022-12-05T19:06:52.546Z,7.35
2022-12-05T19:09:21.778Z,7.82
2022-12-05T19:11:50.901Z,8.57
2022-12-05T19:14:19.346Z,6.30
2022-12-05T19:16:48.745Z,6.05
2022-12-05T19:19:15.570Z,7.28
2022-12-05T19:21:42.439Z,6.25
2022-12-05T19:24:12.068Z,6.35
2022-12-05T19:26:38.599Z,5.93
2022-12-05T19:29:05.792Z,5.97
2022-12-05T19:31:33.054Z,5.18
2022-12-05T19:34:01.662Z,6.25
2022-12-05T19:36:32.083Z,5.38
2022-12-05T19:38:59.411Z,5.50
2022-12-05T19:41:28.607Z,5.43
2022-12-05T19:43:58.238Z,5.55
2022-12-05T19:46:27.675Z,5.47
2022-12-05T19:48:56.435Z,5.05
2022-12-05T19:51:22.996Z,5.35
2022-12-05T19:53:49.480Z,5.22
2022-12-05T19:56:17.824Z,4.85
2022-12-05T19:58:45.149Z,5.55
2022-12-05T20:01:15.475Z,7.60
2022-12-05T20:03:44.062Z,5.20
2022-12-05T20:06:11.004Z,5.45
2022-12-05T20:08:38.598Z,5.20
2022-12-05T20:11:10.483Z,4.72
2022-12-05T20:13:46.913Z,4.35
2022-12-05T20:16:15.919Z,5.43
2022-12-05T20:18:42.714Z,5.30
2022-12-05T20:21:13.022Z,4.55
2022-12-05T20:23:39.821Z,5.68
2022-12-05T20:26:09.309Z,5.65
2022-12-05T20:28:36.388Z,4.97
2022-12-05T20:31:07.544Z,5.20
2022-12-05T20:33:35.008Z,5.55
2022-12-05T20:36:11.620Z,4.32
2022-12-05T20:38:38.918Z,5.20
2022-12-05T20:41:08.600Z,5.00
2022-12-05T20:43:35.151Z,5.88
2022-12-05T20:46:11.413Z,5.50
2022-12-05T20:48:39.149Z,6.80
2022-12-05T20:51:07.103Z,6.13
2022-12-05T20:53:39.095Z,6.35
2022-12-05T20:56:08.829Z,7.28
2022-12-05T20:58:35.883Z,7.28
2022-12-05T21:01:05.474Z,6.95
2022-12-05T21:03:46.167Z,7.30
2022-12-05T21:06:16.881Z,6.18
2022-12-05T21:08:43.727Z,6.28
2022-12-05T21:11:12.141Z,6.13
2022-12-05T21:13:40.341Z,7.20
2022-12-05T21:16:10.424Z,7.35
2022-12-05T21:18:37.464Z,12.10
2022-12-05T21:21:25.369Z,9.55
2022-12-05T21:23:55.220Z,11.50
2022-12-05T21:26:23.003Z,8.00
2022-12-05T21:28:49.710Z,9.50
2022-12-05T21:31:25.487Z,8.18
2022-12-05T21:33:55.079Z,6.78
2022-12-05T21:36:22.740Z,6.75
2022-12-05T21:38:55.639Z,6.75
2022-12-05T21:41:22.853Z,5.85
2022-12-05T21:43:54.076Z,6.28
2022-12-05T21:46:21.454Z,5.75
2022-12-05T21:48:47.875Z,6.65
2022-12-05T21:51:14.370Z,6.05
2022-12-05T21:53:40.884Z,6.88
2022-12-05T21:56:11.187Z,7.82
2022-12-05T21:58:42.051Z,6.45
2022-12-05T22:01:09.939Z,6.00
2022-12-05T22:03:36.480Z,6.38
2022-12-05T22:06:07.989Z,7.80
2022-12-05T22:08:35.905Z,6.30
2022-12-05T22:11:07.598Z,6.32
2022-12-05T22:13:35.299Z,6.18
2022-12-05T22:16:02.301Z,7.72
2022-12-05T22:18:28.956Z,6.88
2022-12-05T22:21:03.438Z,7.60
2022-12-05T22:23:30.402Z,6.72
2022-12-05T22:26:02.224Z,5.95
2022-12-05T22:28:29.644Z,6.13
2022-12-05T22:30:58.969Z,6.38
2022-12-05T22:33:26.733Z,5.97
2022-12-05T22:35:58.311Z,5.85
2022-12-05T22:38:26.508Z,5.80
2022-12-05T22:40:55.313Z,7.00
2022-12-05T22:43:22.983Z,6.50
2022-12-05T22:45:49.481Z,5.70
2022-12-05T22:48:16.034Z,6.15
2022-12-05T22:50:50.529Z,6.03
2022-12-05T22:53:23.027Z,5.85
2022-12-05T22:55:50.256Z,5.43
2022-12-05T22:58:17.591Z,5.38
2022-12-05T23:00:44.532Z,5.07
2022-12-05T23:03:11.354Z,5.22
2022-12-05T23:05:42.322Z,4.88
2022-12-05T23:08:09.991Z,4.97
2022-12-05T23:10:39.057Z,5.03
2022-12-05T23:13:09.208Z,5.28
2022-12-05T23:15:38.804Z,5.47
2022-12-05T23:18:05.443Z,5.40
2022-12-05T23:20:32.696Z,5.28
2022-12-05T23:22:59.160Z,5.60
2022-12-05T23:25:25.612Z,25.80
2022-12-05T23:27:52.045Z,6.65
2022-12-05T23:30:18.590Z,5.82
2022-12-05T23:32:45.035Z,5.60
2022-12-05T23:35:11.774Z,5.20
2022-12-05T23:37:38.260Z,5.80
2022-12-05T23:40:05.993Z,5.68
2022-12-05T23:42:32.480Z,6.13
2022-12-05T23:44:58.910Z,5.28
2022-12-05T23:47:25.591Z,5.60
2022-12-05T23:49:52.367Z,5.18
2022-12-05T23:52:19.052Z,6.38
2022-12-05T23:54:45.604Z,4.95
2022-12-05T23:57:17.247Z,5.72
2022-12-05T23:59:44.374Z,5.32
